Montezuma Creek, Utah
Current Conditions -  °F | °C
As of 11:55 PM on Wednesday 22 Oct 2014 (Local Time) from KBDG Reporting Station
Clear Clear  
Wind Chill: 46°   Ceiling: Unl
Heat Index: 49°   Visibility: 10mi
Dew Point: 33°   Wind: 7mph
Humidity: 53%   Direction: 10°N
Pressure: 30.29"   Gusts: NA
Location:  37.26°N, 109.31°W
Report Text: KBDG 230555Z AUTO 01006KT 10SM CLR 10/00 A3029 RMK AO1 T00960004 10214 20023
Loading
Personal Weather Stations






























Interactive Weather Map
Tropical Storm Tracking
New forecast layout! Learn more

10-Day Weather Forecast

Advertisements
Track Severe Weather on mobile